createdAt,value
2023-03-01T00:00:22.202Z,4.40
2023-03-01T00:02:49.750Z,4.30
2023-03-01T00:05:17.115Z,4.30
2023-03-01T00:07:44.305Z,4.30
2023-03-01T00:10:12.230Z,4.30
2023-03-01T00:12:39.275Z,4.30
2023-03-01T00:15:06.953Z,4.30
2023-03-01T00:17:34.445Z,4.30
2023-03-01T00:20:01.465Z,4.30
2023-03-01T00:22:29.621Z,4.30
2023-03-01T00:24:56.771Z,4.30
2023-03-01T00:27:23.827Z,4.30
2023-03-01T00:29:51.483Z,4.30
2023-03-01T00:32:18.805Z,4.40
2023-03-01T00:34:55.363Z,4.30
2023-03-01T00:37:25.698Z,4.30
2023-03-01T00:39:52.814Z,4.20
2023-03-01T00:42:20.299Z,4.10
2023-03-01T00:44:47.696Z,3.90
2023-03-01T00:47:15.124Z,3.80
2023-03-01T00:49:42.258Z,3.70
2023-03-01T00:52:09.587Z,3.80
2023-03-01T00:54:36.653Z,3.70
2023-03-01T00:57:03.811Z,3.70
2023-03-01T00:59:31.068Z,3.80
2023-03-01T01:01:58.244Z,3.80
2023-03-01T01:04:26.216Z,3.80
2023-03-01T01:06:53.533Z,3.80
2023-03-01T01:09:20.586Z,3.80
2023-03-01T01:11:49.226Z,3.80
2023-03-01T01:14:17.044Z,3.80
2023-03-01T01:16:44.427Z,3.80
2023-03-01T01:19:12.406Z,3.80
2023-03-01T01:21:39.696Z,3.80
2023-03-01T01:24:07.095Z,3.80
2023-03-01T01:26:34.822Z,3.90
2023-03-01T01:29:02.583Z,3.90
2023-03-01T01:31:30.022Z,3.90
2023-03-01T01:33:57.907Z,4.00
2023-03-01T01:36:25.513Z,4.00
2023-03-01T01:38:55.744Z,4.00
2023-03-01T01:41:23.404Z,4.00
2023-03-01T01:44:13.800Z,4.10
2023-03-01T01:47:07.474Z,4.10
2023-03-01T01:49:55.894Z,4.10
2023-03-01T01:52:29.139Z,4.20
2023-03-01T01:55:23.779Z,4.10
2023-03-01T01:57:56.715Z,4.10
2023-03-01T02:00:28.504Z,4.20
2023-03-01T02:03:23.094Z,4.20
2023-03-01T02:05:58.304Z,4.20
2023-03-01T02:08:27.618Z,4.20
2023-03-01T02:10:55.400Z,4.10
2023-03-01T02:13:22.706Z,4.10
2023-03-01T02:15:50.884Z,4.10
2023-03-01T02:18:25.495Z,4.10
2023-03-01T02:21:00.288Z,4.20
2023-03-01T02:23:27.553Z,4.20
2023-03-01T02:26:18.896Z,4.20
2023-03-01T02:28:48.716Z,4.20
2023-03-01T02:31:36.277Z,4.30
2023-03-01T02:34:08.406Z,4.30
2023-03-01T02:36:46.980Z,4.30
2023-03-01T02:39:17.858Z,4.30
2023-03-01T02:41:48.811Z,4.40
2023-03-01T02:44:15.894Z,4.40
2023-03-01T02:46:50.930Z,4.40
2023-03-01T02:49:21.442Z,4.40
2023-03-01T02:51:58.003Z,4.40
2023-03-01T02:54:41.617Z,4.40
2023-03-01T02:57:08.972Z,4.40
2023-03-01T02:59:40.468Z,4.40
2023-03-01T03:02:38.402Z,4.40
2023-03-01T03:05:22.627Z,4.40
2023-03-01T03:07:53.131Z,4.40
2023-03-01T03:10:23.080Z,4.50
2023-03-01T03:13:03.291Z,4.40
2023-03-01T03:15:31.618Z,4.50
2023-03-01T03:17:59.306Z,4.40
2023-03-01T03:20:27.840Z,4.40
2023-03-01T03:22:55.736Z,4.40
2023-03-01T03:25:22.997Z,4.40
2023-03-01T03:27:57.909Z,4.50
2023-03-01T03:30:29.959Z,4.50
2023-03-01T03:32:57.176Z,4.50
2023-03-01T03:35:26.693Z,4.50
2023-03-01T03:38:02.831Z,4.40
2023-03-01T03:40:32.340Z,4.50
2023-03-01T03:42:59.549Z,4.40
2023-03-01T03:45:26.759Z,4.40
2023-03-01T03:47:54.005Z,4.40
2023-03-01T03:50:21.220Z,4.40
2023-03-01T03:52:50.054Z,4.40
2023-03-01T03:55:20.551Z,4.40
2023-03-01T03:57:55.188Z,4.40
2023-03-01T04:00:22.831Z,4.40
2023-03-01T04:02:50.584Z,4.40
2023-03-01T04:05:18.867Z,4.40
2023-03-01T04:07:46.545Z,4.40
2023-03-01T04:10:17.802Z,4.40
2023-03-01T04:12:44.961Z,4.50
2023-03-01T04:15:15.746Z,4.50
2023-03-01T04:17:47.101Z,4.50
2023-03-01T04:20:21.442Z,4.50
2023-03-01T04:22:51.050Z,4.50
2023-03-01T04:25:19.420Z,4.50
2023-03-01T04:27:46.598Z,4.50
2023-03-01T04:30:13.930Z,4.50
2023-03-01T04:32:41.048Z,4.40
2023-03-01T04:35:08.604Z,4.40
2023-03-01T04:37:36.167Z,4.50
2023-03-01T04:40:17.823Z,4.50
2023-03-01T04:42:44.981Z,4.50
2023-03-01T04:45:14.870Z,4.50
2023-03-01T04:47:43.882Z,4.50
2023-03-01T04:50:12.032Z,4.40
2023-03-01T04:52:39.437Z,4.50
2023-03-01T04:55:06.999Z,4.40
2023-03-01T04:57:34.269Z,4.40
2023-03-01T05:00:01.373Z,4.40
2023-03-01T05:02:28.515Z,4.40
2023-03-01T05:04:58.626Z,4.40
2023-03-01T05:07:27.429Z,4.40
2023-03-01T05:09:55.656Z,4.40
2023-03-01T05:12:22.857Z,4.40
2023-03-01T05:14:52.191Z,4.30
2023-03-01T05:17:19.813Z,4.30
2023-03-01T05:19:47.278Z,4.40
2023-03-01T05:22:14.397Z,4.30
2023-03-01T05:24:41.663Z,4.30
2023-03-01T05:27:08.885Z,4.30
2023-03-01T05:29:36.091Z,4.30
2023-03-01T05:32:03.967Z,4.30
2023-03-01T05:34:35.158Z,4.30
2023-03-01T05:37:02.378Z,4.30
2023-03-01T05:39:30.896Z,4.30
2023-03-01T05:41:59.158Z,4.30
2023-03-01T05:44:26.456Z,4.30
2023-03-01T05:46:53.710Z,4.30
2023-03-01T05:49:21.284Z,4.20
2023-03-01T05:51:53.055Z,4.20
2023-03-01T05:54:23.822Z,4.20
2023-03-01T05:56:50.862Z,4.30
2023-03-01T05:59:17.990Z,4.20
2023-03-01T06:01:45.430Z,4.30
2023-03-01T06:04:12.744Z,4.30
2023-03-01T06:06:39.920Z,4.30
2023-03-01T06:09:08.540Z,4.30
2023-03-01T06:11:36.379Z,4.30
2023-03-01T06:14:04.124Z,4.30
2023-03-01T06:16:31.921Z,4.30
2023-03-01T06:18:59.203Z,4.40
2023-03-01T06:21:26.354Z,4.30
2023-03-01T06:23:53.623Z,4.30
2023-03-01T06:26:20.708Z,4.30
2023-03-01T06:28:47.812Z,4.30
2023-03-01T06:31:15.048Z,4.30
2023-03-01T06:33:42.200Z,4.30
2023-03-01T06:36:10.663Z,4.30
2023-03-01T06:38:38.123Z,4.30
2023-03-01T06:41:05.493Z,4.30
2023-03-01T06:43:32.542Z,4.40
2023-03-01T06:46:00.112Z,4.30
2023-03-01T06:48:27.160Z,4.30
2023-03-01T06:50:54.459Z,4.30
2023-03-01T06:53:21.911Z,4.30
2023-03-01T06:55:49.666Z,4.40
2023-03-01T06:58:16.996Z,4.30
2023-03-01T07:00:45.601Z,4.30
2023-03-01T07:03:12.697Z,4.30
2023-03-01T07:05:39.834Z,4.30
2023-03-01T07:08:07.195Z,4.30
2023-03-01T07:10:34.252Z,4.30
2023-03-01T07:13:01.305Z,4.40
2023-03-01T07:15:28.644Z,4.40
2023-03-01T07:17:55.789Z,4.40
2023-03-01T07:20:25.655Z,4.50
2023-03-01T07:22:53.647Z,4.40
2023-03-01T07:25:21.615Z,4.40
2023-03-01T07:27:56.596Z,4.40
2023-03-01T07:30:27.082Z,4.50
2023-03-01T07:32:55.762Z,4.40
2023-03-01T07:35:24.110Z,4.50
2023-03-01T07:37:51.488Z,4.50
2023-03-01T07:40:18.880Z,4.50
2023-03-01T07:42:46.158Z,4.50
2023-03-01T07:45:14.545Z,4.50
2023-03-01T07:47:41.693Z,4.60
2023-03-01T07:50:09.844Z,4.60
2023-03-01T07:52:36.863Z,4.60
2023-03-01T07:55:04.164Z,4.60
2023-03-01T07:57:32.734Z,4.60
2023-03-01T07:59:59.742Z,4.70
2023-03-01T08:02:26.802Z,4.70
2023-03-01T08:04:54.198Z,4.80
2023-03-01T08:11:23.720Z,4.80
2023-03-01T08:14:37.123Z,4.90
2023-03-01T08:17:20.993Z,5.00
2023-03-01T08:19:49.510Z,5.00
2023-03-01T08:22:16.541Z,5.00
2023-03-01T08:24:44.325Z,5.20
2023-03-01T08:27:13.530Z,5.20
2023-03-01T08:29:40.666Z,5.20
2023-03-01T08:32:08.230Z,5.20
2023-03-01T08:34:36.693Z,5.20
2023-03-01T08:37:03.833Z,5.30
2023-03-01T08:39:31.157Z,5.30
2023-03-01T08:41:58.509Z,5.30
2023-03-01T08:44:25.683Z,5.30
2023-03-01T08:46:54.337Z,5.40
2023-03-01T08:49:21.597Z,5.40
2023-03-01T08:51:49.293Z,5.40
2023-03-01T08:54:21.653Z,5.40
2023-03-01T08:56:49.530Z,5.50
2023-03-01T08:59:17.355Z,5.50
2023-03-01T09:01:44.736Z,5.60
2023-03-01T09:04:12.623Z,5.60
2023-03-01T09:06:39.777Z,5.70
2023-03-01T09:09:07.067Z,5.70
2023-03-01T09:11:34.377Z,5.70
2023-03-01T09:14:01.432Z,5.70
2023-03-01T09:16:31.213Z,5.70
2023-03-01T09:18:58.666Z,5.70
2023-03-01T09:21:39.031Z,5.70
2023-03-01T09:24:14.121Z,5.70
2023-03-01T09:26:41.216Z,5.90
2023-03-01T09:29:10.673Z,6.00
2023-03-01T09:31:38.298Z,6.10
2023-03-01T09:34:05.488Z,6.30
2023-03-01T09:36:36.064Z,6.30
2023-03-01T09:39:12.794Z,6.40
2023-03-01T09:42:13.951Z,6.60
2023-03-01T09:44:45.089Z,6.60
2023-03-01T09:47:25.879Z,6.60
2023-03-01T09:50:18.840Z,6.50
2023-03-01T09:53:04.682Z,6.40
2023-03-01T09:55:46.418Z,6.60
2023-03-01T09:58:38.214Z,6.70
2023-03-01T10:01:51.819Z,6.80
2023-03-01T10:04:52.713Z,6.70
2023-03-01T10:07:39.709Z,6.70
2023-03-01T10:10:35.638Z,6.50
2023-03-01T10:13:29.745Z,6.50
2023-03-01T10:16:18.577Z,6.50
2023-03-01T10:18:47.165Z,6.50
2023-03-01T10:21:50.215Z,6.60
2023-03-01T10:24:22.703Z,7.20
2023-03-01T10:27:21.503Z,7.60
2023-03-01T10:33:56.581Z,7.70
2023-03-01T10:36:24.454Z,7.50
2023-03-01T10:39:28.931Z,7.30
2023-03-01T10:42:04.749Z,7.10
2023-03-01T10:44:36.712Z,6.90
2023-03-01T10:47:04.259Z,6.90
2023-03-01T10:49:36.917Z,7.10
2023-03-01T10:52:28.295Z,7.20
2023-03-01T10:55:47.914Z,7.40
2023-03-01T11:00:14.209Z,7.40
2023-03-01T11:12:27.584Z,7.30
2023-03-01T11:15:03.517Z,7.30
2023-03-01T11:21:11.826Z,7.30
2023-03-01T11:26:48.643Z,7.30
2023-03-01T11:29:49.483Z,7.20
2023-03-01T11:32:17.942Z,7.20
2023-03-01T11:34:48.494Z,7.20
2023-03-01T11:37:48.031Z,7.30
2023-03-01T11:40:18.712Z,7.30
2023-03-01T11:42:58.195Z,7.20
2023-03-01T11:45:25.893Z,7.30
2023-03-01T11:48:01.624Z,7.40
2023-03-01T11:50:37.493Z,7.40
2023-03-01T11:53:32.339Z,7.30
2023-03-01T11:56:07.975Z,7.20
2023-03-01T12:36:50.196Z,7.50
2023-03-01T12:40:01.959Z,7.30
2023-03-01T13:04:01.525Z,7.50
2023-03-01T13:07:15.970Z,7.60
2023-03-01T13:09:52.333Z,7.60
2023-03-01T13:12:51.993Z,7.60
2023-03-01T13:15:25.179Z,7.50
2023-03-01T13:18:02.429Z,7.40
2023-03-01T13:20:43.837Z,7.40
2023-03-01T13:23:21.828Z,7.30
2023-03-01T13:26:08.862Z,7.30
2023-03-01T13:28:54.923Z,7.20
2023-03-01T13:31:38.409Z,7.20
2023-03-01T13:34:10.703Z,7.10
2023-03-01T13:36:38.110Z,7.20
2023-03-01T13:39:06.719Z,7.20
2023-03-01T13:41:40.414Z,7.20
2023-03-01T13:44:20.525Z,7.30
2023-03-01T13:46:48.157Z,7.30
2023-03-01T13:49:23.891Z,7.40
2023-03-01T13:51:51.906Z,7.50
2023-03-01T13:54:33.449Z,7.60
2023-03-01T13:57:01.470Z,7.70
2023-03-01T13:59:31.456Z,7.80
2023-03-01T14:02:00.905Z,7.90
2023-03-01T14:04:56.506Z,7.80
2023-03-01T14:07:26.829Z,7.70
2023-03-01T14:09:59.270Z,7.50
2023-03-01T14:41:18.076Z,7.20
2023-03-01T14:51:53.954Z,7.70
2023-03-01T14:54:39.421Z,7.60
2023-03-01T14:57:25.435Z,7.70
2023-03-01T15:00:01.672Z,7.70
2023-03-01T15:02:29.261Z,7.70
2023-03-01T15:04:57.831Z,7.60
2023-03-01T15:07:33.119Z,7.50
2023-03-01T15:10:00.742Z,7.50
2023-03-01T15:12:38.341Z,7.70
2023-03-01T15:15:24.617Z,7.70
2023-03-01T15:17:59.987Z,7.80
2023-03-01T15:20:28.679Z,7.90
2023-03-01T15:22:56.323Z,7.90
2023-03-01T15:25:45.593Z,7.90
2023-03-01T15:28:20.290Z,7.90
2023-03-01T15:30:47.657Z,7.80
2023-03-01T15:33:49.925Z,7.90
2023-03-01T15:36:40.795Z,7.90
2023-03-01T15:39:27.541Z,8.00
2023-03-01T15:41:56.477Z,8.00
2023-03-01T15:44:42.716Z,7.80
2023-03-01T15:47:43.228Z,7.70
2023-03-01T15:50:25.108Z,7.40
2023-03-01T15:52:52.505Z,7.50
2023-03-01T15:55:30.504Z,7.60
2023-03-01T15:58:20.621Z,7.70
2023-03-01T16:01:00.272Z,7.80
2023-03-01T16:03:28.624Z,7.80
2023-03-01T16:05:55.887Z,7.80
2023-03-01T16:08:22.923Z,7.70
2023-03-01T16:10:52.601Z,7.70
2023-03-01T16:13:23.663Z,7.70
2023-03-01T16:15:53.738Z,7.70
2023-03-01T16:18:23.409Z,7.70
2023-03-01T16:20:55.276Z,7.60
2023-03-01T16:23:26.010Z,7.60
2023-03-01T16:25:53.165Z,7.60
2023-03-01T16:28:20.813Z,7.60
2023-03-01T16:30:51.875Z,7.50
2023-03-01T16:33:26.736Z,7.50
2023-03-01T16:36:01.415Z,7.40
2023-03-01T16:38:28.774Z,7.40
2023-03-01T16:40:56.223Z,7.40
2023-03-01T16:43:24.038Z,7.30
2023-03-01T16:45:52.508Z,7.30
2023-03-01T16:48:20.004Z,7.30
2023-03-01T16:50:47.275Z,7.20
2023-03-01T16:53:14.570Z,7.20
2023-03-01T16:55:46.553Z,7.20
2023-03-01T16:58:14.184Z,7.20
2023-03-01T17:00:41.304Z,7.20
2023-03-01T17:03:08.700Z,7.20
2023-03-01T17:05:36.118Z,7.20
2023-03-01T17:08:03.188Z,7.10
2023-03-01T17:10:30.287Z,7.10
2023-03-01T17:12:57.559Z,7.00
2023-03-01T17:15:25.093Z,7.00
2023-03-01T17:17:52.333Z,7.00
2023-03-01T17:20:22.825Z,7.00
2023-03-01T17:22:50.021Z,6.90
2023-03-01T17:25:17.127Z,6.90
2023-03-01T17:27:44.446Z,6.90
2023-03-01T17:30:12.823Z,6.80
2023-03-01T17:32:40.316Z,6.80
2023-03-01T17:35:08.464Z,6.80
2023-03-01T17:37:37.103Z,6.70
2023-03-01T17:40:04.512Z,6.70
2023-03-01T17:42:34.071Z,6.70
2023-03-01T17:45:08.015Z,6.70
2023-03-01T17:51:17.689Z,6.70
2023-03-01T17:53:45.143Z,6.70
2023-03-01T17:56:12.474Z,6.70
2023-03-01T17:58:40.370Z,6.70
2023-03-01T18:01:14.113Z,6.70
2023-03-01T18:03:42.286Z,6.70
2023-03-01T18:06:18.095Z,6.60
2023-03-01T18:08:46.119Z,6.60
2023-03-01T18:11:23.147Z,6.60
2023-03-01T18:13:53.571Z,6.60
2023-03-01T18:16:23.575Z,6.60
2023-03-01T18:18:55.258Z,6.60
2023-03-01T18:21:23.841Z,6.50
2023-03-01T18:23:52.922Z,6.50
2023-03-01T18:26:25.716Z,6.50
2023-03-01T18:28:53.285Z,6.50
2023-03-01T18:31:23.875Z,6.40
2023-03-01T18:33:53.290Z,6.40
2023-03-01T18:36:35.313Z,6.50
2023-03-01T18:39:03.535Z,6.40
2023-03-01T18:41:31.372Z,6.40
2023-03-01T18:43:59.107Z,6.40
2023-03-01T18:46:28.990Z,6.40
2023-03-01T18:48:56.332Z,6.40
2023-03-01T18:51:25.820Z,6.40
2023-03-01T18:53:53.924Z,6.30
2023-03-01T18:56:35.207Z,6.40
2023-03-01T18:59:18.000Z,6.30
2023-03-01T19:01:48.736Z,6.30
2023-03-01T19:04:16.278Z,6.20
2023-03-01T19:06:46.052Z,6.20
2023-03-01T19:09:29.411Z,6.20
2023-03-01T19:12:12.485Z,6.10
2023-03-01T19:14:40.022Z,6.10
2023-03-01T19:17:31.388Z,6.10
2023-03-01T19:20:01.291Z,6.00
2023-03-01T19:22:40.903Z,5.90
2023-03-01T19:33:00.053Z,6.00
2023-03-01T19:35:27.504Z,5.80
2023-03-01T19:37:54.943Z,5.80
2023-03-01T19:40:22.044Z,5.70
2023-03-01T19:42:51.713Z,5.70
2023-03-01T19:45:25.299Z,5.60
2023-03-01T19:47:58.960Z,5.60
2023-03-01T19:50:26.465Z,5.70
2023-03-01T19:52:53.576Z,5.70
2023-03-01T19:55:21.222Z,5.60
2023-03-01T19:57:48.527Z,5.60
2023-03-01T20:00:17.240Z,5.50
2023-03-01T20:02:44.713Z,5.50
2023-03-01T20:05:13.361Z,5.50
2023-03-01T20:07:40.464Z,5.50
2023-03-01T20:10:08.973Z,5.40
2023-03-01T20:12:37.864Z,5.40
2023-03-01T20:15:05.410Z,5.40
2023-03-01T20:17:32.413Z,5.40
2023-03-01T20:19:59.877Z,5.40
2023-03-01T20:22:27.100Z,5.30
2023-03-01T20:24:54.870Z,5.30
2023-03-01T20:27:22.421Z,5.30
2023-03-01T20:29:52.187Z,5.20
2023-03-01T20:32:22.243Z,5.10
2023-03-01T20:34:49.941Z,5.00
2023-03-01T20:37:17.287Z,5.00
2023-03-01T20:39:44.611Z,5.00
2023-03-01T20:42:12.366Z,5.00
2023-03-01T20:44:44.610Z,4.90
2023-03-01T20:47:12.311Z,4.90
2023-03-01T20:49:39.667Z,4.90
2023-03-01T20:52:07.070Z,5.00
2023-03-01T20:54:34.406Z,5.00
2023-03-01T20:57:01.912Z,4.90
2023-03-01T20:59:29.278Z,4.90
2023-03-01T21:01:58.852Z,4.90
2023-03-01T21:04:26.193Z,4.90
2023-03-01T21:06:53.702Z,4.80
2023-03-01T21:09:21.155Z,4.80
2023-03-01T21:11:51.045Z,4.70
2023-03-01T21:14:18.322Z,4.60
2023-03-01T21:16:48.890Z,4.60
2023-03-01T21:19:25.067Z,4.50
2023-03-01T21:34:12.619Z,4.30
2023-03-01T21:36:39.873Z,4.30
2023-03-01T21:39:06.987Z,4.30
2023-03-01T21:41:36.187Z,4.30
2023-03-01T21:44:04.108Z,4.30
2023-03-01T21:46:33.559Z,4.20
2023-03-01T21:49:02.650Z,4.20
2023-03-01T21:51:30.627Z,4.10
2023-03-01T21:53:58.230Z,4.00
2023-03-01T21:56:27.420Z,3.90
2023-03-01T21:58:55.235Z,3.90
2023-03-01T22:01:30.527Z,3.80
2023-03-01T22:04:01.174Z,3.70
2023-03-01T22:06:30.169Z,3.70
2023-03-01T22:08:59.407Z,3.70
2023-03-01T22:11:28.746Z,3.60
2023-03-01T22:13:56.930Z,3.60
2023-03-01T22:16:29.678Z,3.60
2023-03-01T22:18:57.361Z,3.70
2023-03-01T22:21:25.166Z,3.80
2023-03-01T22:23:53.065Z,3.80
2023-03-01T22:26:31.771Z,3.80
2023-03-01T22:29:00.455Z,3.90
2023-03-01T22:31:27.787Z,3.80
2023-03-01T22:33:55.265Z,3.80
2023-03-01T22:36:26.223Z,3.80
2023-03-01T22:38:59.525Z,3.80
2023-03-01T22:41:31.514Z,3.80
2023-03-01T22:43:58.650Z,3.70
2023-03-01T22:46:26.160Z,3.70
2023-03-01T22:48:53.725Z,3.60
2023-03-01T22:51:25.871Z,3.50
2023-03-01T22:53:53.418Z,3.50
2023-03-01T22:56:22.990Z,3.50
2023-03-01T22:58:53.042Z,3.50
2023-03-01T23:01:25.408Z,3.50
2023-03-01T23:03:53.538Z,3.50
2023-03-01T23:06:24.189Z,3.50
2023-03-01T23:08:52.707Z,3.50
2023-03-01T23:11:21.210Z,3.50
2023-03-01T23:13:50.216Z,3.60
2023-03-01T23:16:21.037Z,3.60
2023-03-01T23:18:48.301Z,3.60
2023-03-01T23:21:17.655Z,3.70
2023-03-01T23:23:46.606Z,3.70
2023-03-01T23:26:14.561Z,3.60
2023-03-01T23:28:42.533Z,3.70
2023-03-01T23:31:12.396Z,3.70
2023-03-01T23:33:45.836Z,3.80
2023-03-01T23:36:24.275Z,3.80
2023-03-01T23:38:57.301Z,3.80
2023-03-01T23:41:26.405Z,3.90
2023-03-01T23:43:56.197Z,3.90
2023-03-01T23:46:24.913Z,3.90
2023-03-01T23:48:55.840Z,3.90
2023-03-01T23:51:23.558Z,3.80
2023-03-01T23:53:55.889Z,3.80
2023-03-01T23:56:28.090Z,3.70
2023-03-01T23:58:56.062Z,3.70
